Airfield :
LOGIN :

Register | Disclaimer

   EN    FR    IT 

 










Legend :    VFR   Marginal VFR   IFR   Intensive IFR   Very Intensive IFR
Visi :
Ceiling :
>= 8 km
>= 3000ft
5 to 8 km
1000 to 3000 ft
1500m to 5 km
500 to 1000 ft
800 to 1500m
200 to 500 ft
< 800m
< 200 ft
Symbols :   Thunderstorms  Fog  Heavy snow  Heavy precipitations  Wind > 20 kt
SIGMETs :     Misc.  Thunderstorms  Icing  Turbulence  Mountain Waves  Volcanic Ashes






- Airport Elevation : 348 ft
- IATA code : LDV


LFRJ - Landivisiau

CURRENT METAR :
  • 130530Z AUTO 30024G36KT 9999 FEW015 SCT029 BKN060 08/04 Q0989 TEMPO 2000 SHRA BKN010TCU BKN020

EXPIRED METARs :
  • 130500Z AUTO 30023G35KT 9999 FEW026/// BKN031/// BKN054/// ///CB 07/04 Q0989
  • 130430Z AUTO 30020G31KT 9999 BKN031/// BKN049/// BKN072/// ///TCU 08/05 Q0988
  • 130400Z AUTO 29026G38KT 9999 -RA FEW012/// SCT028/// BKN040/// ///TCU 07/04 Q0988
  • 130330Z AUTO 31022G33KT 9999 4500 RA FEW013/// BKN027/// OVC034/// ///TCU 07/05 Q0988
  • 130300Z AUTO 30023G34KT 9999 BKN037/// BKN044/// OVC058/// ///CB 09/04 Q0987

TAF TAF LFRJ
Valid from the 13 at 06:00 until the 13 at 15:00 UTC


130500Z 1306/1315 29025G35KT 9999 SCT020 BKN030
TEMPO 1306/1313 29030G45KT 2000 SHRA BKN010TCU BKN020
BECMG 1313/1315 4000 RA OVC010



MET'MAP, your aeronautical weather chart ! - Copyright ORBIFLY December 2007 - Disclaimer

ORBIFLY MET'MAP TEAM :

Programming & Development : Alexandra Zaïnal
Concept & original design : Baudouin d'Aumeries
Assistance for programming : Marc-Olivier Méhu
Technical & hardware support : Manuel Goepfert

Contact : metmap@orbifly.com




SOURCES & CREDITS :

   NOAA